Time;durP1;ratioP1;P1;durP2;ratioP2;P2;SDS_P1;SDS_P2;PMS_P1;PMS_P2;Temp;Humidity;BMP_temperature;BMP_pressure;BME280_temperature;BME280_humidity;BME280_pressure;Samples;Min_cycle;Max_cycle;Signal;HPM_P1;HPM_P2
2022/08/08 00:00:02;;;;;;;19.48;18.02;;;11.60;99.90;;;;;;5039693;28;20527;-73
2022/08/08 00:03:12;;;;;;;19.27;18.17;;;11.50;99.90;;;;;;5036124;28;20113;-73
2022/08/08 00:06:09;;;;;;;19.98;18.58;;;11.60;99.90;;;;;;5045398;28;20052;-73
2022/08/08 00:08:52;;;;;;;20.08;18.88;;;11.60;99.90;;;;;;5025945;28;20265;-73
2022/08/08 00:11:19;;;;;;;20.58;19.27;;;11.60;99.90;;;;;;5036631;28;20557;-73
2022/08/08 00:14:04;;;;;;;20.45;18.98;;;11.60;99.90;;;;;;5027052;28;20126;-73
2022/08/08 00:17:18;;;;;;;20.48;19.17;;;11.50;99.90;;;;;;5016369;28;20596;-73
2022/08/08 00:20:05;;;;;;;20.92;19.48;;;11.40;99.90;;;;;;5038785;28;20052;-73
2022/08/08 00:22:48;;;;;;;21.40;20.08;;;11.40;99.90;;;;;;5024364;28;20040;-72
2022/08/08 00:25:27;;;;;;;20.98;19.65;;;11.40;99.90;;;;;;5017403;28;20056;-73
2022/08/08 00:28:18;;;;;;;21.00;19.67;;;11.40;99.90;;;;;;5017155;28;20040;-73
2022/08/08 00:31:07;;;;;;;21.50;20.10;;;11.30;99.90;;;;;;5037874;28;20055;-73
2022/08/08 00:37:19;;;;;;;21.63;20.00;;;11.40;99.90;;;;;;4992389;28;20059;-73
2022/08/08 00:40:27;;;;;;;22.38;20.88;;;11.40;99.90;;;;;;5038201;28;20044;-73
2022/08/08 00:43:27;;;;;;;22.23;20.75;;;11.40;99.90;;;;;;5006990;28;20040;-73
2022/08/08 00:46:15;;;;;;;22.48;20.60;;;11.30;99.90;;;;;;5017987;28;20051;-73
2022/08/08 00:49:27;;;;;;;22.60;20.80;;;11.20;99.90;;;;;;5005214;28;20059;-72
2022/08/08 00:52:09;;;;;;;20.90;19.42;;;11.10;99.90;;;;;;5006243;28;20455;-72
2022/08/08 00:55:13;;;;;;;21.02;19.55;;;11.20;99.90;;;;;;5031508;28;20048;-73
2022/08/08 00:58:07;;;;;;;21.50;20.10;;;11.00;99.90;;;;;;5032909;28;20124;-72
2022/08/08 01:01:14;;;;;;;22.02;20.63;;;11.00;99.90;;;;;;5021020;28;20168;-72
2022/08/08 01:04:39;;;;;;;21.02;19.63;;;11.00;99.90;;;;;;5035023;28;20187;-72
2022/08/08 01:07:22;;;;;;;21.20;19.70;;;11.00;99.90;;;;;;5014337;28;20051;-72
2022/08/08 01:10:25;;;;;;;21.85;20.25;;;11.00;99.90;;;;;;5006194;28;20554;-73
2022/08/08 01:13:28;;;;;;;21.08;19.60;;;10.90;99.90;;;;;;5003945;28;20210;-73
2022/08/08 01:16:52;;;;;;;21.33;19.63;;;10.90;99.90;;;;;;5014695;28;21202;-72
2022/08/08 01:19:46;;;;;;;21.92;20.23;;;10.90;99.90;;;;;;5027990;28;20048;-73
2022/08/08 01:22:30;;;;;;;21.33;19.65;;;10.80;99.90;;;;;;5022407;28;20132;-73
2022/08/08 01:25:29;;;;;;;21.15;19.80;;;10.80;99.90;;;;;;5020414;28;20668;-73
2022/08/08 01:28:42;;;;;;;21.25;19.65;;;10.70;99.90;;;;;;5017588;28;20818;-72
2022/08/08 01:31:39;;;;;;;21.38;19.83;;;10.70;99.90;;;;;;5033876;28;20049;-73
2022/08/08 01:34:55;;;;;;;21.02;19.63;;;10.60;99.90;;;;;;5019215;28;20085;-73
2022/08/08 01:37:41;;;;;;;22.75;20.80;;;10.50;99.90;;;;;;4998903;28;20463;-73
2022/08/08 01:40:55;;;;;;;21.10;19.55;;;10.50;99.90;;;;;;5029166;28;20036;-73
2022/08/08 01:43:47;;;;;;;22.33;20.73;;;10.50;99.90;;;;;;5022749;28;20135;-73
2022/08/08 01:46:44;;;;;;;21.55;19.83;;;10.50;99.90;;;;;;5017751;28;20770;-73
2022/08/08 01:49:44;;;;;;;22.20;20.42;;;10.50;99.90;;;;;;5018701;28;20033;-72
2022/08/08 01:52:28;;;;;;;23.65;21.67;;;10.40;99.90;;;;;;5017808;28;20817;-73
2022/08/08 01:55:36;;;;;;;;;;;10.40;99.90;;;;;;5032231;28;20151;-73
2022/08/08 01:58:46;;;;;;;21.13;19.63;;;10.40;99.90;;;;;;5031859;28;19920;-73
2022/08/08 02:01:45;;;;;;;19.98;18.55;;;10.50;99.90;;;;;;5020610;28;20037;-75
2022/08/08 02:04:42;;;;;;;21.23;19.67;;;10.40;99.90;;;;;;5020579;28;20435;-72
2022/08/08 02:07:25;;;;;;;21.00;19.08;;;10.40;99.90;;;;;;5015762;28;20520;-72
2022/08/08 02:10:31;;;;;;;20.65;19.13;;;10.30;99.90;;;;;;5017931;28;20121;-72
2022/08/08 02:13:23;;;;;;;22.00;20.20;;;10.30;99.90;;;;;;5022413;28;20098;-72
2022/08/08 02:16:52;;;;;;;22.33;20.30;;;10.10;99.90;;;;;;5003756;28;20048;-73
2022/08/08 02:19:52;;;;;;;21.77;20.17;;;10.10;99.90;;;;;;4959082;28;20050;-72
2022/08/08 02:23:05;;;;;;;22.35;20.48;;;10.10;99.90;;;;;;5038245;28;20113;-72
2022/08/08 02:25:59;;;;;;;21.85;20.13;;;10.00;99.90;;;;;;5018803;28;20089;-73
2022/08/08 02:28:41;;;;;;;22.60;20.80;;;10.00;99.90;;;;;;5006128;28;20055;-72
2022/08/08 02:31:50;;;;;;;21.95;20.15;;;10.00;99.90;;;;;;5047367;22;20166;-70
2022/08/08 02:34:56;;;;;;;23.02;20.92;;;9.90;99.90;;;;;;5030612;28;20059;-69
2022/08/08 02:38:16;;;;;;;22.25;20.25;;;9.80;99.90;;;;;;5026443;28;20192;-69
2022/08/08 02:41:08;;;;;;;20.30;18.70;;;9.80;99.90;;;;;;5051441;28;20064;-69
2022/08/08 02:44:26;;;;;;;21.17;19.55;;;9.70;99.90;;;;;;5038145;28;20110;-69
2022/08/08 02:47:25;;;;;;;21.98;20.25;;;9.80;99.90;;;;;;5047080;28;20170;-69
2022/08/08 02:50:21;;;;;;;21.27;19.77;;;9.80;99.90;;;;;;5040838;28;20071;-69
2022/08/08 02:53:07;;;;;;;21.77;19.98;;;9.80;99.90;;;;;;4998008;28;20042;-69
2022/08/08 02:56:02;;;;;;;21.58;19.90;;;9.70;99.90;;;;;;4998767;28;20051;-69
2022/08/08 02:59:18;;;;;;;22.08;20.45;;;9.60;99.90;;;;;;5014201;28;20037;-69
2022/08/08 03:02:10;;;;;;;21.90;20.05;;;9.60;99.90;;;;;;5027907;28;20110;-69
2022/08/08 03:05:17;;;;;;;22.33;20.33;;;9.60;99.90;;;;;;5021986;28;20533;-70
2022/08/08 03:08:02;;;;;;;22.20;20.50;;;9.50;99.90;;;;;;5028033;28;20506;-70
2022/08/08 03:11:08;;;;;;;23.48;21.45;;;9.50;99.90;;;;;;5014454;28;20447;-69
2022/08/08 03:14:07;;;;;;;23.20;21.23;;;9.60;99.90;;;;;;5019672;28;20052;-69
2022/08/08 03:17:00;;;;;;;20.42;18.75;;;9.60;99.90;;;;;;5048794;28;20239;-69
2022/08/08 03:20:00;;;;;;;21.95;20.23;;;9.50;99.90;;;;;;5014486;28;20518;-70
2022/08/08 03:22:33;;;;;;;21.80;19.83;;;9.50;99.90;;;;;;5028180;28;20234;-70
2022/08/08 03:25:08;;;;;;;21.40;19.70;;;9.50;99.90;;;;;;5005218;28;20342;-70
2022/08/08 03:28:01;;;;;;;22.45;20.35;;;9.40;99.90;;;;;;5010336;28;20143;-70
2022/08/08 03:30:33;;;;;;;22.50;20.73;;;9.40;99.90;;;;;;5042691;28;20041;-71
2022/08/08 03:33:17;;;;;;;22.08;20.30;;;9.50;99.90;;;;;;5034998;28;20045;-70
2022/08/08 03:36:05;;;;;;;21.77;20.08;;;9.50;99.90;;;;;;5020240;28;20045;-69
2022/08/08 03:38:37;;;;;;;22.63;20.58;;;9.40;99.90;;;;;;5030608;28;21011;-70
2022/08/08 03:41:34;;;;;;;22.08;20.45;;;9.30;99.90;;;;;;5033199;28;20041;-70
2022/08/08 03:44:33;;;;;;;24.08;21.85;;;9.40;99.90;;;;;;5043474;28;20116;-70
2022/08/08 03:47:03;;;;;;;21.73;20.02;;;9.40;99.90;;;;;;5034603;28;20330;-70
2022/08/08 03:49:47;;;;;;;22.80;20.90;;;9.50;99.90;;;;;;5019952;28;20533;-70
2022/08/08 03:52:36;;;;;;;22.75;20.88;;;9.50;99.90;;;;;;5018178;28;20909;-70
2022/08/08 03:55:13;;;;;;;;;;;9.40;99.90;;;;;;5023657;28;20384;-70
2022/08/08 03:58:01;;;;;;;21.02;19.33;;;9.40;99.90;;;;;;5041869;28;20342;-69
2022/08/08 04:01:10;;;;;;;22.50;20.33;;;9.30;99.90;;;;;;5034739;28;20128;-70
2022/08/08 04:03:54;;;;;;;21.50;19.80;;;9.30;99.90;;;;;;5020152;28;20049;-70
2022/08/08 04:06:32;;;;;;;21.42;19.42;;;9.30;99.90;;;;;;5041753;28;20122;-70
2022/08/08 04:09:05;;;;;;;21.10;19.52;;;9.20;99.90;;;;;;5017290;28;20080;-69
2022/08/08 04:11:43;;;;;;;20.90;19.33;;;9.20;99.90;;;;;;5016919;28;20131;-70
2022/08/08 04:14:35;;;;;;;22.20;20.30;;;9.20;99.90;;;;;;5020735;28;20040;-70
2022/08/08 04:17:05;;;;;;;21.30;19.90;;;9.20;99.90;;;;;;5015873;28;20139;-70
2022/08/08 04:19:52;;;;;;;25.80;21.45;;;9.20;99.90;;;;;;5038369;28;20067;-70
2022/08/08 04:22:19;;;;;;;20.90;19.33;;;9.20;99.90;;;;;;5033737;28;21034;-69
2022/08/08 04:24:54;;;;;;;21.63;19.83;;;9.20;99.90;;;;;;5014751;28;20477;-69
2022/08/08 04:27:23;;;;;;;20.70;19.15;;;9.20;99.90;;;;;;4997040;28;20049;-69
2022/08/08 04:30:11;;;;;;;22.00;20.20;;;9.10;99.90;;;;;;5016933;28;20041;-69
2022/08/08 04:32:47;;;;;;;21.80;20.15;;;9.10;99.90;;;;;;5000744;28;20565;-69
2022/08/08 04:35:20;;;;;;;21.35;19.65;;;9.00;99.90;;;;;;5014108;28;20045;-68
2022/08/08 04:37:51;;;;;;;21.35;19.80;;;9.00;99.90;;;;;;5039352;28;20071;-68
2022/08/08 04:40:22;;;;;;;22.52;20.67;;;9.20;99.90;;;;;;5043086;28;20063;-69
2022/08/08 04:42:55;;;;;;;22.23;20.42;;;9.20;99.90;;;;;;5017987;28;20530;-69
2022/08/08 04:45:48;;;;;;;23.45;21.55;;;9.20;99.90;;;;;;5035077;28;20148;-69
2022/08/08 04:48:16;;;;;;;21.88;20.17;;;9.20;99.90;;;;;;5013971;28;20037;-69
2022/08/08 04:50:48;;;;;;;21.88;20.08;;;9.30;99.90;;;;;;5015865;28;20037;-69
2022/08/08 04:53:20;;;;;;;22.00;20.25;;;9.30;99.90;;;;;;5042756;28;20837;-68
2022/08/08 04:56:08;;;;;;;23.02;21.13;;;9.20;99.90;;;;;;5015120;28;20168;-69
2022/08/08 04:58:35;;;;;;;21.27;19.77;;;9.30;99.90;;;;;;5000485;28;20190;-68
2022/08/08 05:01:04;;;;;;;23.50;21.13;;;9.20;99.90;;;;;;5013664;28;20064;-69
2022/08/08 05:03:38;;;;;;;22.25;20.58;;;9.50;99.90;;;;;;5016117;28;20057;-68
2022/08/08 05:06:27;;;;;;;22.40;20.60;;;9.50;99.90;;;;;;5013599;28;20048;-69
2022/08/08 05:08:56;;;;;;;21.83;20.23;;;9.50;99.90;;;;;;5038203;28;20110;-69
2022/08/08 05:11:33;;;;;;;22.88;20.98;;;9.70;99.90;;;;;;5016285;28;20040;-69
2022/08/08 05:14:07;;;;;;;21.65;20.05;;;9.70;99.90;;;;;;5016060;28;20133;-69
2022/08/08 05:16:38;;;;;;;21.80;19.98;;;9.80;99.90;;;;;;5016543;28;20357;-69
2022/08/08 05:19:25;;;;;;;21.75;19.98;;;9.90;99.90;;;;;;5019857;28;20496;-69
2022/08/08 05:22:12;;;;;;;22.85;20.92;;;10.00;99.90;;;;;;5014999;28;20521;-69
2022/08/08 05:24:45;;;;;;;20.95;19.35;;;10.10;99.90;;;;;;5016591;28;20148;-69
2022/08/08 05:27:17;;;;;;;20.73;19.33;;;10.10;99.90;;;;;;5013083;28;20625;-68
2022/08/08 05:29:45;;;;;;;21.63;20.02;;;10.30;99.90;;;;;;5013379;28;20049;-70
2022/08/08 05:32:21;;;;;;;22.35;20.55;;;10.40;99.90;;;;;;5030946;28;20514;-69
2022/08/08 05:34:59;;;;;;;;;;;10.40;99.90;;;;;;5016906;28;20072;-69
2022/08/08 05:37:38;;;;;;;22.08;20.40;;;10.50;99.90;;;;;;5037659;28;20209;-69
2022/08/08 05:40:21;;;;;;;20.58;18.75;;;10.60;99.90;;;;;;5028875;28;20060;-70
2022/08/08 05:43:05;;;;;;;20.58;19.00;;;10.70;99.90;;;;;;5016769;28;20060;-69
2022/08/08 05:46:00;;;;;;;20.90;19.40;;;10.80;99.90;;;;;;5011970;28;20149;-69
2022/08/08 05:48:36;;;;;;;20.35;18.92;;;11.00;99.90;;;;;;5014948;28;20495;-69
2022/08/08 05:51:06;;;;;;;19.50;18.08;;;11.10;99.90;;;;;;5014466;28;20589;-69
2022/08/08 05:53:45;;;;;;;19.38;17.73;;;11.20;99.90;;;;;;5019605;28;20125;-69
2022/08/08 05:56:37;;;;;;;19.55;17.58;;;11.40;99.90;;;;;;5032522;28;20265;-69
2022/08/08 05:59:24;;;;;;;18.45;17.25;;;11.60;99.90;;;;;;5031406;28;20314;-69
2022/08/08 06:05:18;;;;;;;20.45;18.70;;;11.90;99.90;;;;;;5034296;28;20099;-69
2022/08/08 06:08:03;;;;;;;20.85;19.48;;;12.00;99.90;;;;;;5013421;28;20051;-69
2022/08/08 06:10:48;;;;;;;21.88;20.42;;;12.30;99.90;;;;;;5024962;28;20054;-69
2022/08/08 06:13:15;;;;;;;21.17;19.73;;;12.50;99.90;;;;;;5013913;28;20074;-69
2022/08/08 06:15:50;;;;;;;22.00;20.40;;;12.70;99.90;;;;;;5029600;28;20041;-69
2022/08/08 06:18:40;;;;;;;21.65;19.98;;;12.90;99.90;;;;;;5032723;28;20041;-69
2022/08/08 06:21:09;;;;;;;22.88;21.23;;;13.10;99.90;;;;;;5034920;28;20115;-69
2022/08/08 06:23:54;;;;;;;24.88;23.17;;;13.50;99.90;;;;;;5007705;28;20069;-69
2022/08/08 06:26:41;;;;;;;25.95;24.05;;;14.00;99.90;;;;;;5030886;28;20040;-70
2022/08/08 06:29:38;;;;;;;26.33;24.55;;;14.60;99.90;;;;;;5033371;28;20587;-70
2022/08/08 06:32:29;;;;;;;25.75;23.92;;;15.40;99.90;;;;;;4998859;28;20050;-70
2022/08/08 06:35:03;;;;;;;26.30;24.60;;;16.10;99.90;;;;;;5006633;28;20114;-70
2022/08/08 06:37:58;;;;;;;24.85;23.02;;;16.70;99.90;;;;;;5026815;28;20060;-70
2022/08/08 06:40:30;;;;;;;25.60;23.80;;;17.50;99.90;;;;;;5012317;28;20040;-70
2022/08/08 06:43:04;;;;;;;25.90;24.00;;;18.20;99.90;;;;;;5014684;28;20041;-69
2022/08/08 06:45:57;;;;;;;26.70;24.67;;;18.90;99.90;;;;;;5003640;28;20300;-70
2022/08/08 06:48:23;;;;;;;25.55;23.90;;;19.50;99.90;;;;;;5011928;28;20049;-70
2022/08/08 06:50:54;;;;;;;27.75;25.85;;;19.70;99.90;;;;;;5015128;28;20115;-70
2022/08/08 06:53:25;;;;;;;27.10;25.40;;;20.10;99.90;;;;;;5038299;28;20143;-70
2022/08/08 06:56:07;;;;;;;26.85;24.92;;;20.40;99.90;;;;;;5012743;28;20056;-70
2022/08/08 06:58:35;;;;;;;27.20;25.23;;;20.50;99.90;;;;;;5013598;28;20068;-70
2022/08/08 07:01:09;;;;;;;27.77;26.00;;;20.90;99.90;;;;;;5012409;28;20588;-70
2022/08/08 07:04:02;;;;;;;26.65;24.95;;;21.20;99.90;;;;;;5016521;28;20136;-72
2022/08/08 07:06:55;;;;;;;28.48;26.45;;;21.40;99.90;;;;;;5036157;28;20132;-74
2022/08/08 07:09:48;;;;;;;26.95;25.25;;;21.70;99.90;;;;;;5031063;28;20132;-74
2022/08/08 07:12:43;;;;;;;27.42;25.52;;;22.10;99.90;;;;;;5031451;28;20041;-74
2022/08/08 07:15:42;;;;;;;28.40;26.60;;;22.40;99.90;;;;;;5021431;28;20128;-74
2022/08/08 07:18:49;;;;;;;27.52;25.83;;;22.50;99.90;;;;;;4999096;28;20423;-75
2022/08/08 07:21:27;;;;;;;26.67;25.00;;;22.60;99.90;;;;;;5032506;28;20446;-75
2022/08/08 07:24:03;;;;;;;27.90;26.00;;;22.80;99.90;;;;;;5033341;28;20061;-75
2022/08/08 07:26:40;;;;;;;26.15;24.65;;;23.30;99.90;;;;;;5012637;28;20332;-75
2022/08/08 07:29:09;;;;;;;27.17;25.67;;;23.70;99.90;;;;;;5015315;28;20051;-74
2022/08/08 07:31:57;;;;;;;27.67;25.92;;;23.70;99.90;;;;;;5015936;28;20046;-75
2022/08/08 07:34:26;;;;;;;27.60;25.95;;;24.10;99.90;;;;;;4998844;28;20276;-75
2022/08/08 07:37:04;;;;;;;27.75;26.05;;;24.20;99.90;;;;;;5014588;28;20064;-77
2022/08/08 07:39:42;;;;;;;28.50;26.70;;;24.40;99.90;;;;;;5014983;28;20037;-76
2022/08/08 07:42:28;;;;;;;28.92;27.08;;;24.60;99.90;;;;;;5010519;28;20041;-75
2022/08/08 07:45:04;;;;;;;28.45;26.63;;;24.30;99.90;;;;;;5015975;28;20049;-75
2022/08/08 07:47:32;;;;;;;28.90;27.02;;;24.20;99.90;;;;;;5033329;28;20045;-74
2022/08/08 07:50:08;;;;;;;28.70;27.00;;;24.20;99.90;;;;;;5040568;28;20132;-76
2022/08/08 07:52:40;;;;;;;28.75;27.05;;;24.40;99.90;;;;;;5043205;28;20053;-76
2022/08/08 07:55:28;;;;;;;29.13;27.33;;;24.70;99.90;;;;;;5025188;28;20085;-75
2022/08/08 07:58:17;;;;;;;28.30;26.42;;;25.00;99.90;;;;;;5001302;28;20553;-74
2022/08/08 08:00:58;;;;;;;29.52;27.63;;;24.80;99.90;;;;;;5019700;28;20053;-74
2022/08/08 08:03:35;;;;;;;28.45;26.83;;;25.00;99.90;;;;;;5012148;28;20588;-75
2022/08/08 08:06:12;;;;;;;28.98;27.27;;;25.60;99.90;;;;;;5020782;28;20461;-74
2022/08/08 08:08:56;;;;;;;29.42;27.63;;;25.60;99.90;;;;;;5017037;28;20471;-74
2022/08/08 08:11:30;;;;;;;28.75;26.85;;;25.60;99.90;;;;;;5008040;28;20160;-74
2022/08/08 08:14:53;;;;;;;28.45;26.75;;;25.70;99.90;;;;;;4998465;28;20277;-74
2022/08/08 08:17:24;;;;;;;29.17;27.27;;;26.00;99.90;;;;;;4982102;28;20553;-74
2022/08/08 08:20:04;;;;;;;30.45;28.55;;;26.00;99.90;;;;;;4994667;28;20306;-76
2022/08/08 08:22:36;;;;;;;29.58;27.77;;;25.80;99.90;;;;;;5008296;28;20380;-75
2022/08/08 08:25:07;;;;;;;29.15;27.55;;;26.00;99.90;;;;;;5026616;28;20052;-75
2022/08/08 08:27:37;;;;;;;29.77;27.92;;;26.10;99.90;;;;;;5022663;28;20157;-74
2022/08/08 08:30:12;;;;;;;30.92;28.98;;;26.20;99.90;;;;;;5013624;28;20045;-74
2022/08/08 08:32:40;;;;;;;30.33;28.48;;;25.80;99.90;;;;;;5045872;22;20139;-72
2022/08/08 08:35:19;;;;;;;31.13;29.15;;;25.50;99.90;;;;;;5018419;28;20049;-71
2022/08/08 08:37:56;;;;;;;31.20;29.27;;;25.60;99.90;;;;;;5047459;28;20073;-71
2022/08/08 08:40:43;;;;;;;31.38;29.38;;;25.40;99.90;;;;;;5036454;28;20044;-71
2022/08/08 08:43:16;;;;;;;30.27;28.55;;;25.70;99.90;;;;;;5036294;28;20532;-71
2022/08/08 08:45:47;;;;;;;30.00;28.30;;;25.40;99.90;;;;;;5025124;28;20617;-70
2022/08/08 08:48:17;;;;;;;31.63;29.77;;;25.70;99.90;;;;;;5033587;28;20044;-71
2022/08/08 08:50:50;;;;;;;30.73;28.92;;;25.80;99.90;;;;;;5033938;28;20069;-72
2022/08/08 08:53:19;;;;;;;30.73;28.92;;;26.00;99.90;;;;;;5029618;28;20148;-72
2022/08/08 08:56:13;;;;;;;31.13;29.23;;;26.20;98.90;;;;;;5042963;28;20135;-72
2022/08/08 08:58:57;;;;;;;33.03;31.05;;;26.60;99.90;;;;;;5045365;28;20242;-71
2022/08/08 09:01:37;;;;;;;31.98;30.02;;;26.50;98.80;;;;;;5038284;28;20419;-71
2022/08/08 09:04:19;;;;;;;30.30;28.60;;;26.50;99.80;;;;;;5034578;28;20086;-71
2022/08/08 09:07:11;;;;;;;31.45;29.75;;;26.60;98.50;;;;;;5048268;28;20067;-71
2022/08/08 09:09:45;;;;;;;;;;;26.50;98.50;;;;;;5057408;28;20048;-72
2022/08/08 09:12:26;;;;;;;32.15;30.25;;;26.60;99.20;;;;;;5022532;28;19962;-71
2022/08/08 09:14:57;;;;;;;31.95;30.02;;;26.40;97.90;;;;;;5021818;28;20148;-71
2022/08/08 09:17:31;;;;;;;32.83;30.83;;;26.30;99.90;;;;;;5033554;28;20045;-72
2022/08/08 09:20:19;;;;;;;32.85;30.65;;;26.30;99.90;;;;;;5031760;28;20506;-71
2022/08/08 09:23:07;;;;;;;32.83;30.83;;;26.30;99.90;;;;;;5055090;28;20539;-70
2022/08/08 09:25:46;;;;;;;32.05;30.25;;;26.50;99.90;;;;;;5047030;28;20039;-74
2022/08/08 09:28:36;;;;;;;33.13;31.10;;;25.80;99.40;;;;;;5049766;28;20273;-71
2022/08/08 09:31:16;;;;;;;33.17;31.38;;;25.70;98.70;;;;;;5048124;28;20044;-71
2022/08/08 09:33:51;;;;;;;33.70;31.45;;;26.20;98.70;;;;;;5026642;28;20036;-71
2022/08/08 09:36:39;;;;;;;33.58;31.38;;;25.70;97.80;;;;;;5053853;28;20127;-70
2022/08/08 09:39:20;;;;;;;32.58;30.77;;;24.70;98.10;;;;;;5047904;28;20044;-71
2022/08/08 09:42:00;;;;;;;31.88;30.10;;;24.20;99.20;;;;;;5054538;28;20652;-71
2022/08/08 09:45:06;;;;;;;31.60;29.77;;;24.90;98.10;;;;;;5041648;28;20259;-71
2022/08/08 09:47:42;;;;;;;31.75;29.85;;;25.20;98.00;;;;;;5045943;28;20044;-72
2022/08/08 09:50:30;;;;;;;32.05;30.02;;;25.60;97.50;;;;;;5026598;28;21615;-71
2022/08/08 09:53:02;;;;;;;32.15;30.23;;;25.80;97.80;;;;;;5035616;28;20041;-71
2022/08/08 09:55:49;;;;;;;31.92;30.10;;;26.00;98.80;;;;;;5029809;28;20053;-71
2022/08/08 09:58:44;;;;;;;32.55;30.77;;;26.00;98.20;;;;;;5033769;28;20429;-70
2022/08/08 10:01:11;;;;;;;32.28;30.30;;;26.20;96.70;;;;;;5033271;28;20044;-70
2022/08/08 10:03:59;;;;;;;32.88;31.05;;;25.70;97.70;;;;;;5014810;28;20041;-72
2022/08/08 10:06:30;;;;;;;32.58;30.88;;;25.90;97.80;;;;;;5011657;28;20041;-72
2022/08/08 10:08:58;;;;;;;32.33;30.48;;;26.20;97.00;;;;;;5035560;28;20041;-72
2022/08/08 10:11:25;;;;;;;33.08;31.08;;;26.70;98.10;;;;;;5013180;28;20044;-72
2022/08/08 10:14:12;;;;;;;32.67;30.55;;;26.90;97.40;;;;;;5031585;28;20124;-72
2022/08/08 10:17:05;;;;;;;32.95;31.15;;;26.80;95.90;;;;;;5032389;28;20047;-72
2022/08/08 10:19:57;;;;;;;33.85;31.65;;;26.70;96.60;;;;;;5033116;28;20718;-71
2022/08/08 10:22:33;;;;;;;33.50;31.60;;;27.00;96.70;;;;;;5031393;28;20037;-73
2022/08/08 10:25:04;;;;;;;33.45;31.45;;;27.20;96.40;;;;;;5033053;28;20044;-73
2022/08/08 10:27:42;;;;;;;33.72;31.83;;;27.30;95.20;;;;;;5035012;28;23179;-73
2022/08/08 10:30:10;;;;;;;33.83;31.83;;;27.30;94.70;;;;;;5034451;28;20045;-71
2022/08/08 10:32:58;;;;;;;34.90;33.00;;;26.60;95.80;;;;;;5036670;28;20044;-72
2022/08/08 10:35:31;;;;;;;34.80;32.70;;;26.50;97.50;;;;;;5036223;28;20698;-73
2022/08/08 10:38:19;;;;;;;35.53;33.42;;;26.60;95.70;;;;;;5051852;28;20430;-73
2022/08/08 10:40:51;;;;;;;36.00;34.00;;;26.80;96.70;;;;;;5039512;28;20086;-72
2022/08/08 10:43:19;;;;;;;36.55;34.45;;;27.00;95.20;;;;;;5029145;28;20045;-71
2022/08/08 10:45:49;;;;;;;35.50;33.47;;;27.30;96.00;;;;;;5051595;28;20037;-71
2022/08/08 10:48:35;;;;;;;36.30;34.03;;;27.40;95.50;;;;;;5053064;28;20157;-70
2022/08/08 10:51:25;;;;;;;33.95;32.15;;;27.20;95.70;;;;;;5062110;28;20624;-72
2022/08/08 10:54:06;;;;;;;34.78;32.78;;;27.50;95.40;;;;;;5043222;28;20410;-70
2022/08/08 10:56:34;;;;;;;33.40;31.48;;;27.50;94.30;;;;;;5032965;28;20056;-73
2022/08/08 10:59:08;;;;;;;33.47;31.58;;;27.30;95.00;;;;;;5055036;28;20276;-73
2022/08/08 11:01:45;;;;;;;34.50;32.30;;;27.30;95.30;;;;;;5042450;28;20037;-72
2022/08/08 11:04:20;;;;;;;34.65;32.70;;;27.40;94.70;;;;;;5046132;28;20051;-72
2022/08/08 11:07:05;;;;;;;33.67;31.77;;;27.60;95.00;;;;;;5052866;28;20252;-71
2022/08/08 11:09:32;;;;;;;33.55;31.75;;;27.70;95.20;;;;;;5052979;28;20040;-72
2022/08/08 11:12:01;;;;;;;37.28;35.08;;;27.50;94.80;;;;;;5042125;28;20072;-72
2022/08/08 11:14:58;;;;;;;35.63;33.72;;;26.90;94.80;;;;;;5045089;28;20046;-72
2022/08/08 11:17:28;;;;;;;35.38;33.28;;;27.20;94.60;;;;;;5035458;28;20067;-72
2022/08/08 11:20:17;;;;;;;35.90;33.70;;;27.40;93.80;;;;;;5058931;28;20070;-72
2022/08/08 11:22:58;;;;;;;34.95;32.85;;;26.60;94.60;;;;;;5036030;28;20047;-72
2022/08/08 11:25:28;;;;;;;35.10;33.20;;;26.40;94.50;;;;;;5034220;28;20073;-71
2022/08/08 11:28:19;;;;;;;33.90;31.80;;;26.50;95.40;;;;;;5053227;28;20139;-71
2022/08/08 11:30:48;;;;;;;33.97;32.17;;;27.00;94.20;;;;;;5056482;28;20063;-72
2022/08/08 11:33:23;;;;;;;34.75;32.70;;;27.10;93.50;;;;;;5051954;28;20126;-72
2022/08/08 11:36:13;;;;;;;36.55;34.53;;;27.50;93.80;;;;;;5040792;28;20044;-71
2022/08/08 11:38:45;;;;;;;35.50;33.53;;;27.80;95.30;;;;;;5054387;28;20729;-72
2022/08/08 11:41:26;;;;;;;35.38;33.10;;;27.20;95.90;;;;;;5050503;28;20240;-73
2022/08/08 11:44:00;;;;;;;35.97;33.88;;;26.90;96.00;;;;;;5037895;28;20174;-72
2022/08/08 11:46:33;;;;;;;35.22;33.13;;;27.10;96.50;;;;;;5040753;28;20736;-73
2022/08/08 11:49:03;;;;;;;35.05;33.05;;;27.10;97.30;;;;;;5061065;28;20052;-73
2022/08/08 11:51:32;;;;;;;34.50;32.40;;;27.30;96.50;;;;;;5061371;28;20068;-71
2022/08/08 11:54:07;;;;;;;35.90;33.90;;;27.00;96.10;;;;;;5036559;28;20056;-71
2022/08/08 11:56:54;;;;;;;35.05;32.78;;;27.30;96.40;;;;;;5052435;28;20165;-72
2022/08/08 11:59:31;;;;;;;34.17;32.10;;;27.50;97.40;;;;;;5061029;28;20056;-72
2022/08/08 12:02:20;;;;;;;34.38;32.38;;;27.70;94.90;;;;;;5052600;28;20040;-72
2022/08/08 12:05:09;;;;;;;33.30;31.40;;;27.80;95.80;;;;;;5041361;28;20055;-72
2022/08/08 12:07:50;;;;;;;35.55;33.45;;;27.70;95.00;;;;;;5056768;28;20044;-72
2022/08/08 12:10:23;;;;;;;34.78;32.83;;;27.40;95.20;;;;;;5036566;28;20127;-68
2022/08/08 12:13:03;;;;;;;34.65;32.65;;;27.50;96.70;;;;;;5059822;28;20789;-71
2022/08/08 12:15:36;;;;;;;33.53;31.73;;;27.60;96.80;;;;;;5038978;28;20049;-70
2022/08/08 12:18:18;;;;;;;33.50;31.60;;;27.60;97.00;;;;;;5057494;28;20565;-70
2022/08/08 12:20:52;;;;;;;34.25;32.28;;;27.50;96.30;;;;;;5055242;28;20522;-71
2022/08/08 12:23:34;;;;;;;34.40;32.30;;;27.20;96.20;;;;;;5055659;28;20166;-73
2022/08/08 12:26:22;;;;;;;34.35;32.45;;;26.90;96.10;;;;;;5052953;28;20032;-72
2022/08/08 12:29:16;;;;;;;35.75;33.65;;;26.50;95.70;;;;;;5041267;28;20048;-72
2022/08/08 12:31:45;;;;;;;35.80;33.45;;;26.50;97.90;;;;;;5037137;28;20679;-71
2022/08/08 12:34:37;;;;;;;34.88;32.67;;;26.80;95.80;;;;;;5054001;28;20040;-72
2022/08/08 12:37:06;;;;;;;33.95;31.85;;;27.10;96.20;;;;;;5041559;28;20551;-71
2022/08/08 12:39:34;;;;;;;35.90;33.60;;;27.20;96.30;;;;;;5055291;28;20037;-73
2022/08/08 12:42:22;;;;;;;35.42;33.22;;;26.30;96.20;;;;;;5039806;28;20105;-72
2022/08/08 12:45:08;;;;;;;34.83;32.65;;;26.40;96.40;;;;;;5057970;28;20076;-71
2022/08/08 12:48:03;;;;;;;35.80;33.63;;;26.30;96.20;;;;;;5042390;28;20055;-73
2022/08/08 12:50:53;;;;;;;36.35;34.00;;;26.30;96.50;;;;;;5056375;28;20076;-70
2022/08/08 12:53:24;;;;;;;33.75;31.75;;;26.80;96.60;;;;;;5054186;28;20844;-71
2022/08/08 12:56:02;;;;;;;35.53;33.53;;;27.10;96.90;;;;;;5045306;28;20040;-71
2022/08/08 12:58:50;;;;;;;36.42;34.33;;;26.60;95.30;;;;;;5030377;28;20080;-70
2022/08/08 13:01:17;;;;;;;35.28;33.28;;;26.40;96.30;;;;;;5056033;28;20036;-72
2022/08/08 13:04:12;;;;;;;36.13;33.88;;;26.30;96.30;;;;;;5041844;28;20036;-73
2022/08/08 13:07:05;;;;;;;36.08;33.97;;;25.60;96.50;;;;;;5064299;28;20090;-73
2022/08/08 13:09:38;;;;;;;34.90;32.80;;;25.60;96.60;;;;;;5062471;28;20045;-70
2022/08/08 13:12:31;;;;;;;34.65;32.65;;;26.30;96.90;;;;;;5052527;28;20051;-73
2022/08/08 13:15:02;;;;;;;35.17;32.97;;;26.90;96.60;;;;;;5061432;28;20076;-70
2022/08/08 13:17:30;;;;;;;35.38;33.03;;;27.20;95.50;;;;;;5033978;28;20118;-73
2022/08/08 13:20:19;;;;;;;35.20;33.20;;;27.10;95.50;;;;;;5056624;28;20698;-71
2022/08/08 13:22:46;;;;;;;35.47;33.05;;;27.30;96.30;;;;;;5050714;28;20053;-73
2022/08/08 13:25:18;;;;;;;35.78;33.63;;;27.10;95.70;;;;;;5053076;28;20048;-72
2022/08/08 13:27:52;;;;;;;35.47;33.38;;;27.10;97.00;;;;;;5056476;28;20052;-72
2022/08/08 13:30:24;;;;;;;35.03;33.13;;;27.10;96.40;;;;;;5036968;28;20060;-72
2022/08/08 13:32:56;;;;;;;36.65;34.45;;;27.00;95.60;;;;;;5059437;28;20048;-71
2022/08/08 13:35:24;;;;;;;36.28;34.22;;;27.10;95.20;;;;;;5056593;28;20040;-72
2022/08/08 13:38:05;;;;;;;35.88;33.92;;;27.10;95.30;;;;;;5068389;28;20691;-72
2022/08/08 13:40:37;;;;;;;36.05;33.92;;;27.40;95.90;;;;;;5064423;28;20086;-72
2022/08/08 13:43:07;;;;;;;34.58;32.45;;;27.70;95.70;;;;;;5060618;28;20504;-72
2022/08/08 13:45:35;;;;;;;35.10;33.10;;;27.90;96.00;;;;;;5054125;28;20037;-72
2022/08/08 13:48:11;;;;;;;33.53;31.70;;;28.00;94.90;;;;;;5063007;28;20044;-72
2022/08/08 13:50:45;;;;;;;34.10;32.10;;;27.70;94.50;;;;;;5037525;28;20048;-72
2022/08/08 13:53:26;;;;;;;34.25;32.28;;;27.80;96.70;;;;;;5054516;28;20052;-72
2022/08/08 13:56:00;;;;;;;34.40;32.45;;;28.00;95.70;;;;;;5060541;28;20048;-72
2022/08/08 13:58:28;;;;;;;34.42;32.22;;;28.10;95.90;;;;;;5064427;28;20043;-72